createdAt,value
2023-01-06T00:01:25.446Z,5.65
2023-01-06T00:03:55.213Z,5.63
2023-01-06T00:06:27.551Z,5.62
2023-01-06T00:09:00.769Z,5.63
2023-01-06T00:11:29.234Z,5.63
2023-01-06T00:13:57.167Z,5.60
2023-01-06T00:16:25.049Z,5.58
2023-01-06T00:18:57.650Z,5.57
2023-01-06T00:21:25.892Z,5.54
2023-01-06T00:23:54.153Z,5.52
2023-01-06T00:26:22.230Z,5.47
2023-01-06T00:28:57.080Z,5.46
2023-01-06T00:31:27.237Z,5.46
2023-01-06T00:33:57.234Z,5.47
2023-01-06T00:36:25.625Z,5.43
2023-01-06T00:38:53.556Z,5.40
2023-01-06T00:41:41.140Z,5.37
2023-01-06T00:44:09.332Z,5.38
2023-01-06T00:46:37.302Z,5.36
2023-01-06T00:49:07.159Z,5.34
2023-01-06T00:51:38.388Z,5.33
2023-01-06T00:54:10.824Z,5.33
2023-01-06T00:56:42.563Z,5.37
2023-01-06T00:59:12.827Z,5.37
2023-01-06T01:01:42.151Z,5.35
2023-01-06T01:04:11.084Z,5.33
2023-01-06T01:06:39.312Z,5.32
2023-01-06T01:09:07.826Z,5.34
2023-01-06T01:11:54.611Z,5.35
2023-01-06T01:14:22.503Z,5.35
2023-01-06T01:16:50.494Z,5.36
2023-01-06T01:19:18.860Z,5.31
2023-01-06T01:21:47.163Z,5.35
2023-01-06T01:24:15.819Z,5.34
2023-01-06T01:26:44.084Z,5.31
2023-01-06T01:29:16.219Z,5.30
2023-01-06T01:31:44.509Z,5.30
2023-01-06T01:34:15.210Z,5.29
2023-01-06T01:36:45.993Z,5.32
2023-01-06T01:39:17.091Z,5.35
2023-01-06T01:41:45.889Z,5.37
2023-01-06T01:44:50.931Z,5.38
2023-01-06T01:47:30.748Z,5.42
2023-01-06T01:50:31.485Z,5.43
2023-01-06T01:53:07.707Z,5.45
2023-01-06T01:55:37.271Z,5.47
2023-01-06T01:58:12.587Z,5.45
2023-01-06T02:00:43.386Z,5.44
2023-01-06T02:03:14.228Z,5.45
2023-01-06T02:05:48.285Z,5.44
2023-01-06T02:08:33.352Z,5.43
2023-01-06T02:11:01.989Z,5.38
2023-01-06T02:13:32.451Z,5.30
2023-01-06T02:16:13.548Z,5.23
2023-01-06T02:18:50.588Z,5.18
2023-01-06T02:21:23.491Z,5.17
2023-01-06T02:24:18.538Z,5.11
2023-01-06T02:27:20.427Z,5.07
2023-01-06T02:30:06.736Z,5.01
2023-01-06T02:33:19.021Z,4.98
2023-01-06T02:36:01.721Z,4.97
2023-01-06T02:38:29.899Z,4.95
2023-01-06T02:41:11.932Z,4.92
2023-01-06T02:44:02.840Z,4.88
2023-01-06T02:46:45.419Z,4.84
2023-01-06T02:49:28.893Z,4.82
2023-01-06T02:52:17.087Z,4.81
2023-01-06T02:54:53.651Z,4.80
2023-01-06T02:57:45.294Z,4.77
2023-01-06T03:00:31.932Z,4.76
2023-01-06T03:03:04.622Z,4.75
2023-01-06T03:05:35.945Z,4.74
2023-01-06T03:08:11.796Z,4.73
2023-01-06T03:10:42.445Z,4.73
2023-01-06T03:13:46.962Z,4.72
2023-01-06T03:16:16.307Z,4.71
2023-01-06T03:18:46.861Z,4.69
2023-01-06T03:21:18.610Z,4.71
2023-01-06T03:23:47.291Z,4.72
2023-01-06T03:26:15.595Z,4.74
2023-01-06T03:28:45.683Z,4.75
2023-01-06T03:31:38.899Z,4.76
2023-01-06T03:34:44.027Z,4.79
2023-01-06T03:38:05.163Z,4.80
2023-01-06T03:40:45.001Z,4.82
2023-01-06T03:43:31.968Z,4.86
2023-01-06T03:46:24.549Z,4.89
2023-01-06T03:49:05.513Z,4.93
2023-01-06T03:51:57.768Z,5.01
2023-01-06T03:54:32.464Z,5.11
2023-01-06T03:57:09.693Z,5.19
2023-01-06T03:59:45.017Z,5.27
2023-01-06T04:02:14.493Z,5.36
2023-01-06T04:04:42.768Z,5.44
2023-01-06T04:07:11.654Z,5.50
2023-01-06T04:09:40.693Z,5.56
2023-01-06T04:12:27.132Z,5.62
2023-01-06T04:14:54.963Z,5.69
2023-01-06T04:17:23.061Z,5.72
2023-01-06T04:19:51.016Z,5.72
2023-01-06T04:22:19.112Z,5.73
2023-01-06T04:24:46.962Z,5.77
2023-01-06T04:27:14.861Z,5.83
2023-01-06T04:29:43.343Z,5.88
2023-01-06T04:32:12.315Z,5.91
2023-01-06T04:34:40.555Z,5.95
2023-01-06T04:37:08.877Z,5.99
2023-01-06T04:39:36.743Z,6.02
2023-01-06T04:42:04.815Z,6.06
2023-01-06T04:44:32.663Z,6.05
2023-01-06T04:47:00.459Z,6.07
2023-01-06T04:49:28.277Z,6.05
2023-01-06T04:51:56.193Z,5.97
2023-01-06T04:54:24.063Z,5.91
2023-01-06T04:56:51.928Z,5.87
2023-01-06T04:59:20.115Z,5.85
2023-01-06T05:01:48.058Z,5.81
2023-01-06T05:04:15.924Z,5.77
2023-01-06T05:06:43.777Z,5.72
2023-01-06T05:09:11.902Z,5.67
2023-01-06T05:11:39.803Z,5.63
2023-01-06T05:14:07.781Z,5.60
2023-01-06T05:16:35.716Z,5.56
2023-01-06T05:19:04.174Z,5.51
2023-01-06T05:21:33.008Z,5.43
2023-01-06T05:24:00.978Z,5.35
2023-01-06T05:26:29.300Z,5.29
2023-01-06T05:28:57.292Z,5.25
2023-01-06T05:31:25.161Z,5.17
2023-01-06T05:33:53.020Z,5.09
2023-01-06T05:36:20.949Z,5.04
2023-01-06T05:38:53.706Z,4.99
2023-01-06T05:41:21.602Z,4.96
2023-01-06T05:43:49.444Z,4.94
2023-01-06T05:46:17.339Z,4.90
2023-01-06T05:48:45.246Z,4.86
2023-01-06T05:51:15.201Z,4.83
2023-01-06T05:53:45.096Z,4.80
2023-01-06T05:56:18.366Z,4.77
2023-01-06T05:58:49.486Z,4.74
2023-01-06T06:01:21.056Z,4.73
2023-01-06T06:03:50.007Z,4.74
2023-01-06T06:06:19.217Z,4.73
2023-01-06T06:08:47.362Z,4.72
2023-01-06T06:11:18.123Z,4.69
2023-01-06T06:13:51.680Z,4.65
2023-01-06T06:16:22.178Z,4.60
2023-01-06T06:18:59.561Z,4.56
2023-01-06T06:21:30.463Z,4.53
2023-01-06T06:23:59.491Z,4.54
2023-01-06T06:26:27.631Z,4.52
2023-01-06T06:28:55.940Z,4.51
2023-01-06T06:31:28.962Z,4.47
2023-01-06T06:33:59.382Z,4.45
2023-01-06T06:36:28.408Z,4.43
2023-01-06T06:38:56.759Z,4.41
2023-01-06T06:41:25.825Z,4.38
2023-01-06T06:43:53.723Z,4.38
2023-01-06T06:46:22.425Z,4.39
2023-01-06T06:48:50.965Z,4.43
2023-01-06T06:51:20.978Z,4.49
2023-01-06T06:53:49.749Z,4.52
2023-01-06T06:56:19.723Z,4.54
2023-01-06T06:58:47.787Z,4.56
2023-01-06T07:01:18.549Z,4.56
2023-01-06T07:03:47.559Z,4.58
2023-01-06T07:06:21.079Z,4.61
2023-01-06T07:08:50.118Z,4.65
2023-01-06T07:11:18.600Z,4.69
2023-01-06T07:13:47.110Z,4.72
2023-01-06T07:16:15.313Z,4.75
2023-01-06T07:18:43.838Z,4.77
2023-01-06T07:21:11.797Z,4.78
2023-01-06T07:23:39.669Z,4.79
2023-01-06T07:26:07.580Z,4.80
2023-01-06T07:28:35.482Z,4.85
2023-01-06T07:31:03.724Z,4.87
2023-01-06T07:33:31.678Z,4.88
2023-01-06T07:35:59.520Z,4.89
2023-01-06T07:38:27.430Z,4.90
2023-01-06T07:41:00.609Z,4.90
2023-01-06T07:43:28.862Z,4.93
2023-01-06T07:45:56.775Z,4.93
2023-01-06T07:48:24.676Z,4.89
2023-01-06T07:50:52.604Z,4.84
2023-01-06T07:53:20.668Z,4.80
2023-01-06T07:55:52.745Z,4.79
2023-01-06T07:58:23.876Z,4.80
2023-01-06T08:00:52.223Z,4.85
2023-01-06T08:03:20.626Z,4.93
2023-01-06T08:05:48.746Z,5.00
2023-01-06T08:08:17.124Z,5.05
2023-01-06T08:10:45.016Z,5.13
2023-01-06T08:13:13.021Z,5.21
2023-01-06T08:15:41.006Z,5.26
2023-01-06T08:18:08.952Z,5.33
2023-01-06T08:20:36.955Z,5.44
2023-01-06T08:23:04.958Z,5.54
2023-01-06T08:25:33.096Z,5.69
2023-01-06T08:28:01.388Z,5.82
2023-01-06T08:30:29.673Z,5.93
2023-01-06T08:32:59.427Z,6.02
2023-01-06T08:35:27.928Z,6.09
2023-01-06T08:37:56.234Z,6.19
2023-01-06T08:40:24.121Z,6.26
2023-01-06T08:42:52.127Z,6.32
2023-01-06T08:45:20.033Z,6.42
2023-01-06T08:47:47.942Z,6.52
2023-01-06T08:50:16.000Z,6.59
2023-01-06T08:52:44.004Z,6.66
2023-01-06T08:55:12.174Z,6.76
2023-01-06T08:57:40.137Z,6.81
2023-01-06T09:00:09.241Z,6.86
2023-01-06T09:02:37.123Z,6.92
2023-01-06T09:05:05.929Z,6.99
2023-01-06T09:07:33.819Z,7.04
2023-01-06T09:10:01.791Z,7.08
2023-01-06T09:12:29.727Z,7.09
2023-01-06T09:14:57.586Z,7.14
2023-01-06T09:17:25.711Z,7.20
2023-01-06T09:19:53.586Z,7.27
2023-01-06T09:22:21.487Z,7.35
2023-01-06T09:24:49.327Z,7.39
2023-01-06T09:27:17.391Z,7.43
2023-01-06T09:29:45.273Z,7.48
2023-01-06T09:32:13.289Z,7.57
2023-01-06T09:34:41.235Z,7.64
2023-01-06T09:37:09.212Z,7.66
2023-01-06T09:39:37.288Z,7.71
2023-01-06T09:42:39.831Z,7.78
2023-01-06T09:45:17.295Z,7.87
2023-01-06T09:47:51.962Z,7.96
2023-01-06T09:50:34.651Z,8.06
2023-01-06T09:53:11.183Z,8.18
2023-01-06T09:55:44.249Z,8.25
2023-01-06T09:58:22.975Z,8.35
2023-01-06T10:00:54.568Z,8.50
2023-01-06T10:03:25.104Z,8.65
2023-01-06T10:06:16.501Z,8.72
2023-01-06T10:09:03.095Z,8.89
2023-01-06T10:11:51.882Z,9.04
2023-01-06T10:14:29.549Z,9.13
2023-01-06T10:17:15.943Z,9.23
2023-01-06T10:19:58.941Z,9.33
2023-01-06T10:22:48.666Z,9.44
2023-01-06T10:25:22.783Z,9.62
2023-01-06T10:27:55.617Z,9.72
2023-01-06T10:30:44.085Z,9.81
2023-01-06T10:33:24.182Z,9.90
2023-01-06T10:35:55.356Z,9.95
2023-01-06T10:38:29.272Z,10.03
2023-01-06T10:41:10.754Z,10.09
2023-01-06T10:43:38.634Z,10.10
2023-01-06T10:46:06.704Z,10.08
2023-01-06T10:48:35.311Z,10.11
2023-01-06T10:51:39.793Z,10.17
2023-01-06T10:54:12.254Z,10.24
2023-01-06T10:56:45.600Z,10.27
2023-01-06T10:59:14.179Z,10.30
2023-01-06T11:01:52.161Z,10.32
2023-01-06T11:04:21.598Z,10.36
2023-01-06T11:06:52.246Z,10.40
2023-01-06T11:09:25.878Z,10.44
2023-01-06T11:11:55.753Z,10.47
2023-01-06T11:14:29.048Z,10.43
2023-01-06T11:17:02.543Z,10.41
2023-01-06T11:19:35.320Z,10.41
2023-01-06T11:22:04.123Z,10.44
2023-01-06T11:24:32.319Z,10.50
2023-01-06T11:27:14.385Z,10.55
2023-01-06T11:29:42.273Z,10.60
2023-01-06T11:32:16.979Z,10.68
2023-01-06T11:34:54.428Z,10.73
2023-01-06T11:37:34.628Z,10.77
2023-01-06T11:40:14.416Z,10.77
2023-01-06T11:42:42.810Z,10.77
2023-01-06T11:45:32.347Z,10.76
2023-01-06T11:48:01.567Z,10.79
2023-01-06T11:50:29.694Z,10.82
2023-01-06T11:53:03.586Z,10.83
2023-01-06T11:55:31.632Z,10.80
2023-01-06T11:58:31.137Z,10.78
2023-01-06T12:01:09.588Z,10.81
2023-01-06T12:03:41.651Z,10.87
2023-01-06T12:06:32.078Z,10.93
2023-01-06T12:09:16.127Z,10.98
2023-01-06T12:11:53.305Z,11.05
2023-01-06T12:14:29.688Z,11.11
2023-01-06T12:17:07.195Z,11.16
2023-01-06T12:19:37.977Z,11.15
2023-01-06T12:22:17.202Z,11.19
2023-01-06T12:24:47.535Z,11.21
2023-01-06T12:27:27.568Z,11.25
2023-01-06T12:30:00.598Z,11.23
2023-01-06T12:32:36.344Z,11.16
2023-01-06T12:35:06.842Z,11.13
2023-01-06T12:37:41.407Z,11.15
2023-01-06T12:40:28.191Z,11.17
2023-01-06T12:43:14.126Z,11.17
2023-01-06T12:45:56.646Z,11.15
2023-01-06T12:48:49.762Z,11.12
2023-01-06T12:51:30.444Z,11.07
2023-01-06T12:54:06.737Z,11.03
2023-01-06T12:57:02.172Z,11.00
2023-01-06T12:59:56.467Z,10.94
2023-01-06T13:02:36.783Z,10.89
2023-01-06T13:05:52.863Z,10.86
2023-01-06T13:08:51.160Z,10.83
2023-01-06T13:11:40.905Z,10.81
2023-01-06T13:14:26.176Z,10.80
2023-01-06T13:17:14.937Z,10.79
2023-01-06T13:20:23.805Z,10.78
2023-01-06T13:23:06.100Z,10.73
2023-01-06T13:25:52.768Z,10.69
2023-01-06T13:28:44.771Z,10.69
2023-01-06T13:31:32.991Z,10.66
2023-01-06T13:34:10.096Z,10.63
2023-01-06T13:37:02.516Z,10.59
2023-01-06T13:39:34.751Z,10.54
2023-01-06T13:42:06.152Z,10.48
2023-01-06T13:44:38.769Z,10.45
2023-01-06T13:47:13.234Z,10.41
2023-01-06T13:49:42.277Z,10.39
2023-01-06T13:52:31.267Z,10.36
2023-01-06T13:55:02.613Z,10.36
2023-01-06T13:57:36.842Z,10.35
2023-01-06T14:00:04.686Z,10.34
2023-01-06T14:02:39.924Z,10.34
2023-01-06T14:05:19.850Z,10.34
2023-01-06T14:07:50.778Z,10.33
2023-01-06T14:10:42.479Z,10.34
2023-01-06T14:13:32.908Z,10.34
2023-01-06T14:16:11.122Z,10.34
2023-01-06T14:18:51.837Z,10.34
2023-01-06T14:21:29.168Z,10.35
2023-01-06T14:23:56.979Z,10.33
2023-01-06T14:27:11.024Z,10.29
2023-01-06T14:29:48.905Z,10.28
2023-01-06T14:32:19.479Z,10.25
2023-01-06T14:35:00.253Z,10.24
2023-01-06T14:37:54.389Z,10.20
2023-01-06T14:40:29.483Z,10.15
2023-01-06T14:42:59.624Z,10.15
2023-01-06T14:45:38.509Z,10.14
2023-01-06T14:48:18.309Z,10.14
2023-01-06T14:50:52.087Z,10.14
2023-01-06T14:53:28.332Z,10.14
2023-01-06T14:55:57.687Z,10.12
2023-01-06T14:58:33.873Z,10.09
2023-01-06T15:01:03.175Z,10.06
2023-01-06T15:03:32.245Z,10.04
2023-01-06T15:06:21.631Z,10.03
2023-01-06T15:08:49.774Z,10.02
2023-01-06T15:11:29.263Z,10.01
2023-01-06T15:13:57.595Z,9.98
2023-01-06T15:16:35.182Z,9.98
2023-01-06T15:19:07.270Z,9.98
2023-01-06T15:21:40.293Z,9.98
2023-01-06T15:24:36.563Z,9.97
2023-01-06T15:27:07.023Z,9.96
2023-01-06T15:29:35.215Z,9.97
2023-01-06T15:32:04.617Z,9.98
2023-01-06T15:34:32.368Z,9.98
2023-01-06T15:37:02.406Z,9.98
2023-01-06T15:39:32.774Z,9.98
2023-01-06T15:42:04.408Z,10.00
2023-01-06T15:44:37.747Z,9.97
2023-01-06T15:47:11.664Z,9.98
2023-01-06T15:49:49.185Z,9.97
2023-01-06T15:52:26.604Z,9.98
2023-01-06T15:54:56.921Z,9.99
2023-01-06T15:57:26.509Z,9.99
2023-01-06T16:00:01.813Z,9.99
2023-01-06T16:02:33.775Z,9.99
2023-01-06T16:05:02.457Z,9.99
2023-01-06T16:07:39.834Z,10.00
2023-01-06T16:10:36.922Z,10.01
2023-01-06T16:13:27.774Z,10.01
2023-01-06T16:16:04.418Z,9.99
2023-01-06T16:18:35.296Z,10.00
2023-01-06T16:21:30.016Z,10.01
2023-01-06T16:24:02.106Z,10.02
2023-01-06T16:26:32.966Z,10.03
2023-01-06T16:29:02.813Z,10.05
2023-01-06T16:31:34.149Z,10.04
2023-01-06T16:34:34.562Z,10.06
2023-01-06T16:37:03.922Z,10.07
2023-01-06T16:39:31.803Z,10.06
2023-01-06T16:41:59.696Z,10.07
2023-01-06T16:44:32.313Z,10.11
2023-01-06T16:47:02.015Z,10.17
2023-01-06T16:49:30.724Z,10.24
2023-01-06T16:51:59.465Z,10.32
2023-01-06T16:54:27.350Z,10.38
2023-01-06T16:56:55.275Z,10.43
2023-01-06T16:59:36.281Z,10.48
2023-01-06T17:02:15.971Z,10.52
2023-01-06T17:04:45.943Z,10.54
2023-01-06T17:07:15.212Z,10.56
2023-01-06T17:09:43.312Z,10.56
2023-01-06T17:12:34.980Z,10.54
2023-01-06T17:15:03.616Z,10.54
2023-01-06T17:17:31.560Z,10.55
2023-01-06T17:19:59.528Z,10.55
2023-01-06T17:22:30.262Z,10.56
2023-01-06T17:25:01.834Z,10.55
2023-01-06T17:27:30.175Z,10.54
2023-01-06T17:30:01.204Z,10.54
2023-01-06T17:32:38.348Z,10.53
2023-01-06T17:35:32.865Z,10.50
2023-01-06T17:38:07.946Z,10.48
2023-01-06T17:40:38.510Z,10.50
2023-01-06T17:43:22.015Z,10.50
2023-01-06T17:45:50.253Z,10.51
2023-01-06T17:48:18.282Z,10.48
2023-01-06T17:50:55.041Z,10.50
2023-01-06T17:53:48.078Z,10.51
2023-01-06T17:56:16.647Z,10.52
2023-01-06T17:58:45.360Z,10.51
2023-01-06T18:01:25.853Z,10.52
2023-01-06T18:03:57.048Z,10.53
2023-01-06T18:06:37.254Z,10.53
2023-01-06T18:09:05.198Z,10.55
2023-01-06T18:11:39.589Z,10.56
2023-01-06T18:14:38.752Z,10.58
2023-01-06T18:17:40.040Z,10.58
2023-01-06T18:20:08.215Z,10.57
2023-01-06T18:22:38.145Z,10.55
2023-01-06T18:25:15.031Z,10.51
2023-01-06T18:27:42.900Z,10.47
2023-01-06T18:30:27.893Z,10.47
2023-01-06T18:32:56.243Z,10.44
2023-01-06T18:35:28.629Z,10.42
2023-01-06T18:38:03.168Z,10.41
2023-01-06T18:40:31.657Z,10.40
2023-01-06T18:43:22.513Z,10.38
2023-01-06T18:45:53.511Z,10.35
2023-01-06T18:48:27.579Z,10.31
2023-01-06T18:50:57.572Z,10.26
2023-01-06T18:53:39.978Z,10.24
2023-01-06T18:56:15.767Z,10.22
2023-01-06T18:58:57.154Z,10.21
2023-01-06T19:01:27.019Z,10.19
2023-01-06T19:04:18.866Z,10.17
2023-01-06T19:06:51.644Z,10.13
2023-01-06T19:09:26.166Z,10.11
2023-01-06T19:12:15.188Z,10.08
2023-01-06T19:14:46.594Z,10.06
2023-01-06T19:17:38.247Z,10.03
2023-01-06T19:20:17.820Z,10.01
2023-01-06T19:22:46.024Z,9.99
2023-01-06T19:25:34.888Z,9.98
2023-01-06T19:28:11.088Z,9.97
2023-01-06T19:30:51.529Z,9.98
2023-01-06T19:33:25.463Z,9.98
2023-01-06T19:36:22.891Z,9.99
2023-01-06T19:38:50.825Z,10.01
2023-01-06T19:41:23.966Z,10.05
2023-01-06T19:44:01.539Z,10.07
2023-01-06T19:46:31.478Z,10.08
2023-01-06T19:48:59.973Z,10.10
2023-01-06T19:51:34.124Z,10.11
2023-01-06T19:54:23.076Z,10.13
2023-01-06T19:56:52.308Z,10.14
2023-01-06T19:59:31.642Z,10.14
2023-01-06T20:02:21.900Z,10.13
2023-01-06T20:04:49.960Z,10.11
2023-01-06T20:07:17.814Z,10.08
2023-01-06T20:09:45.871Z,10.06
2023-01-06T20:12:13.976Z,10.04
2023-01-06T20:14:41.907Z,10.01
2023-01-06T20:17:09.933Z,9.98
2023-01-06T20:19:37.903Z,9.95
2023-01-06T20:22:05.787Z,9.93
2023-01-06T20:24:33.848Z,9.91
2023-01-06T20:27:01.870Z,9.89
2023-01-06T20:29:29.776Z,9.87
2023-01-06T20:31:58.030Z,9.84
2023-01-06T20:34:26.104Z,9.81
2023-01-06T20:36:54.311Z,9.77
2023-01-06T20:39:22.377Z,9.75
2023-01-06T20:41:50.241Z,9.73
2023-01-06T20:44:18.193Z,9.70
2023-01-06T20:46:46.024Z,9.69
2023-01-06T20:49:14.242Z,9.67
2023-01-06T20:51:42.733Z,9.64
2023-01-06T20:54:10.584Z,9.62
2023-01-06T20:56:38.533Z,9.59
2023-01-06T20:59:06.425Z,9.56
2023-01-06T21:01:34.662Z,9.53
2023-01-06T21:04:02.686Z,9.51
2023-01-06T21:06:30.557Z,9.48
2023-01-06T21:08:58.490Z,9.45
2023-01-06T21:11:26.320Z,9.41
2023-01-06T21:13:54.273Z,9.37
2023-01-06T21:16:22.760Z,9.34
2023-01-06T21:18:51.432Z,9.30
2023-01-06T21:21:19.387Z,9.26
2023-01-06T21:23:47.354Z,9.23
2023-01-06T21:26:15.340Z,9.21
2023-01-06T21:28:43.283Z,9.19
2023-01-06T21:31:11.395Z,9.17
2023-01-06T21:33:39.344Z,9.16
2023-01-06T21:36:07.603Z,9.16
2023-01-06T21:38:37.332Z,9.16
2023-01-06T21:41:23.992Z,9.16
2023-01-06T21:43:52.195Z,9.18
2023-01-06T21:46:20.446Z,9.17
2023-01-06T21:48:48.322Z,9.17
2023-01-06T21:51:16.625Z,9.18
2023-01-06T21:53:44.875Z,9.17
2023-01-06T21:56:12.923Z,9.16
2023-01-06T21:58:40.947Z,9.14
2023-01-06T22:01:08.992Z,9.14
2023-01-06T22:03:36.912Z,9.13
2023-01-06T22:06:05.259Z,9.12
2023-01-06T22:08:33.451Z,9.12
2023-01-06T22:11:01.681Z,9.12
2023-01-06T22:13:31.293Z,9.13
2023-01-06T22:15:59.342Z,9.12
2023-01-06T22:18:28.094Z,9.12
2023-01-06T22:20:58.023Z,9.14
2023-01-06T22:23:27.016Z,9.14
2023-01-06T22:25:55.032Z,9.15
2023-01-06T22:28:23.443Z,9.15
2023-01-06T22:30:53.885Z,9.16
2023-01-06T22:33:21.848Z,9.17
2023-01-06T22:35:49.979Z,9.17
2023-01-06T22:38:17.883Z,9.17
2023-01-06T22:40:46.711Z,9.17
2023-01-06T22:43:14.607Z,9.17
2023-01-06T22:45:42.456Z,9.17
2023-01-06T22:48:10.373Z,9.15
2023-01-06T22:50:38.631Z,9.17
2023-01-06T22:53:06.442Z,9.16
2023-01-06T22:55:34.557Z,9.14
2023-01-06T22:58:02.439Z,9.14
2023-01-06T23:00:30.393Z,9.13
2023-01-06T23:02:58.460Z,9.11
2023-01-06T23:05:26.709Z,9.08
2023-01-06T23:07:54.543Z,9.08
2023-01-06T23:10:22.547Z,9.06
2023-01-06T23:12:52.461Z,9.04
2023-01-06T23:15:20.344Z,9.03
2023-01-06T23:17:48.221Z,9.02
2023-01-06T23:20:16.163Z,9.01
2023-01-06T23:22:44.001Z,8.99
2023-01-06T23:25:12.015Z,8.97
2023-01-06T23:27:40.005Z,8.95
2023-01-06T23:30:08.507Z,8.94
2023-01-06T23:32:36.420Z,8.92
2023-01-06T23:35:04.495Z,8.90
2023-01-06T23:37:33.380Z,8.86
2023-01-06T23:40:01.207Z,8.83
2023-01-06T23:42:30.468Z,8.79
2023-01-06T23:45:00.695Z,8.77
2023-01-06T23:47:28.533Z,8.74
2023-01-06T23:49:56.452Z,8.70
2023-01-06T23:52:24.290Z,8.66
2023-01-06T23:54:52.111Z,8.63
2023-01-06T23:57:19.991Z,8.59
2023-01-06T23:59:47.927Z,8.55
